sensor_id;sensor_type;location;lat;lon;timestamp;P1;durP1;ratioP1;P2;durP2;ratioP2
24559;SDS011;12727;49.934;8.656;2023-04-24T00:00:53;2.65;;;1.05;;
24559;SDS011;12727;49.934;8.656;2023-04-24T00:03:21;2.80;;;0.90;;
24559;SDS011;12727;49.934;8.656;2023-04-24T00:05:49;2.05;;;1.00;;
24559;SDS011;12727;49.934;8.656;2023-04-24T00:08:16;3.05;;;0.80;;
24559;SDS011;12727;49.934;8.656;2023-04-24T00:10:42;2.25;;;0.88;;
24559;SDS011;12727;49.934;8.656;2023-04-24T00:13:07;3.17;;;0.82;;
24559;SDS011;12727;49.934;8.656;2023-04-24T00:15:33;3.90;;;1.33;;
24559;SDS011;12727;49.934;8.656;2023-04-24T00:17:59;1.88;;;0.80;;
24559;SDS011;12727;49.934;8.656;2023-04-24T00:20:26;1.98;;;0.70;;
24559;SDS011;12727;49.934;8.656;2023-04-24T00:22:53;2.17;;;0.82;;
24559;SDS011;12727;49.934;8.656;2023-04-24T00:25:18;2.33;;;0.70;;
24559;SDS011;12727;49.934;8.656;2023-04-24T00:27:44;2.88;;;0.73;;
24559;SDS011;12727;49.934;8.656;2023-04-24T00:30:09;2.55;;;0.82;;
24559;SDS011;12727;49.934;8.656;2023-04-24T00:32:35;2.08;;;0.77;;
24559;SDS011;12727;49.934;8.656;2023-04-24T00:35:01;1.80;;;0.50;;
24559;SDS011;12727;49.934;8.656;2023-04-24T00:37:26;3.85;;;0.90;;
24559;SDS011;12727;49.934;8.656;2023-04-24T00:39:52;1.65;;;0.80;;
24559;SDS011;12727;49.934;8.656;2023-04-24T00:42:17;4.78;;;1.15;;
24559;SDS011;12727;49.934;8.656;2023-04-24T00:44:43;1.38;;;0.80;;
24559;SDS011;12727;49.934;8.656;2023-04-24T00:47:09;1.83;;;0.70;;
24559;SDS011;12727;49.934;8.656;2023-04-24T00:49:36;2.40;;;0.70;;
24559;SDS011;12727;49.934;8.656;2023-04-24T00:52:02;1.63;;;0.80;;
24559;SDS011;12727;49.934;8.656;2023-04-24T00:54:32;2.83;;;1.05;;
24559;SDS011;12727;49.934;8.656;2023-04-24T00:56:58;4.15;;;0.80;;
24559;SDS011;12727;49.934;8.656;2023-04-24T00:59:23;2.45;;;0.70;;
24559;SDS011;12727;49.934;8.656;2023-04-24T01:01:49;3.40;;;1.00;;
24559;SDS011;12727;49.934;8.656;2023-04-24T01:04:16;3.13;;;1.00;;
24559;SDS011;12727;49.934;8.656;2023-04-24T01:06:43;3.53;;;0.73;;
24559;SDS011;12727;49.934;8.656;2023-04-24T01:09:10;2.05;;;0.82;;
24559;SDS011;12727;49.934;8.656;2023-04-24T01:11:37;4.13;;;0.98;;
24559;SDS011;12727;49.934;8.656;2023-04-24T01:14:02;2.20;;;1.00;;
24559;SDS011;12727;49.934;8.656;2023-04-24T01:16:28;3.00;;;1.10;;
24559;SDS011;12727;49.934;8.656;2023-04-24T01:18:54;3.97;;;1.10;;
24559;SDS011;12727;49.934;8.656;2023-04-24T01:21:20;4.18;;;1.50;;
24559;SDS011;12727;49.934;8.656;2023-04-24T01:23:48;2.70;;;0.80;;
24559;SDS011;12727;49.934;8.656;2023-04-24T01:26:16;2.10;;;0.90;;
24559;SDS011;12727;49.934;8.656;2023-04-24T01:28:42;2.25;;;0.80;;
24559;SDS011;12727;49.934;8.656;2023-04-24T01:31:08;1.33;;;0.75;;
24559;SDS011;12727;49.934;8.656;2023-04-24T01:33:33;3.95;;;1.20;;
24559;SDS011;12727;49.934;8.656;2023-04-24T01:35:59;2.75;;;0.88;;
24559;SDS011;12727;49.934;8.656;2023-04-24T01:38:25;4.50;;;1.10;;
24559;SDS011;12727;49.934;8.656;2023-04-24T01:40:50;4.18;;;0.82;;
24559;SDS011;12727;49.934;8.656;2023-04-24T01:43:16;2.00;;;0.95;;
24559;SDS011;12727;49.934;8.656;2023-04-24T01:45:42;4.03;;;0.82;;
24559;SDS011;12727;49.934;8.656;2023-04-24T01:48:07;1.70;;;0.90;;
24559;SDS011;12727;49.934;8.656;2023-04-24T01:50:33;1.83;;;0.85;;
24559;SDS011;12727;49.934;8.656;2023-04-24T01:52:59;3.30;;;1.00;;
24559;SDS011;12727;49.934;8.656;2023-04-24T01:55:24;4.13;;;0.80;;
24559;SDS011;12727;49.934;8.656;2023-04-24T01:57:51;1.35;;;0.90;;
24559;SDS011;12727;49.934;8.656;2023-04-24T02:00:20;1.58;;;0.70;;
24559;SDS011;12727;49.934;8.656;2023-04-24T02:02:46;4.50;;;1.10;;
24559;SDS011;12727;49.934;8.656;2023-04-24T02:05:12;3.47;;;0.90;;
24559;SDS011;12727;49.934;8.656;2023-04-24T02:07:37;4.05;;;0.98;;
24559;SDS011;12727;49.934;8.656;2023-04-24T02:10:03;2.70;;;0.77;;
24559;SDS011;12727;49.934;8.656;2023-04-24T02:12:29;1.92;;;0.90;;
24559;SDS011;12727;49.934;8.656;2023-04-24T02:14:55;3.00;;;0.90;;
24559;SDS011;12727;49.934;8.656;2023-04-24T02:17:21;1.85;;;0.85;;
24559;SDS011;12727;49.934;8.656;2023-04-24T02:19:46;3.35;;;0.80;;
24559;SDS011;12727;49.934;8.656;2023-04-24T02:22:12;2.75;;;0.70;;
24559;SDS011;12727;49.934;8.656;2023-04-24T02:24:38;2.78;;;0.80;;
24559;SDS011;12727;49.934;8.656;2023-04-24T02:27:04;5.72;;;1.30;;
24559;SDS011;12727;49.934;8.656;2023-04-24T02:29:29;2.17;;;0.90;;
24559;SDS011;12727;49.934;8.656;2023-04-24T02:31:55;2.47;;;1.10;;
24559;SDS011;12727;49.934;8.656;2023-04-24T02:34:21;2.97;;;1.00;;
24559;SDS011;12727;49.934;8.656;2023-04-24T02:36:48;3.75;;;1.08;;
24559;SDS011;12727;49.934;8.656;2023-04-24T02:39:14;2.67;;;1.00;;
24559;SDS011;12727;49.934;8.656;2023-04-24T02:41:41;2.45;;;1.30;;
24559;SDS011;12727;49.934;8.656;2023-04-24T02:44:10;2.05;;;0.80;;
24559;SDS011;12727;49.934;8.656;2023-04-24T02:46:35;3.92;;;1.20;;
24559;SDS011;12727;49.934;8.656;2023-04-24T02:49:01;4.15;;;1.10;;
24559;SDS011;12727;49.934;8.656;2023-04-24T02:51:27;3.28;;;1.42;;
24559;SDS011;12727;49.934;8.656;2023-04-24T02:53:53;3.72;;;1.30;;
24559;SDS011;12727;49.934;8.656;2023-04-24T02:56:19;1.75;;;1.05;;
24559;SDS011;12727;49.934;8.656;2023-04-24T02:58:44;4.43;;;1.35;;
24559;SDS011;12727;49.934;8.656;2023-04-24T03:01:10;2.67;;;1.20;;
24559;SDS011;12727;49.934;8.656;2023-04-24T03:03:36;3.55;;;1.40;;
24559;SDS011;12727;49.934;8.656;2023-04-24T03:06:02;4.65;;;1.10;;
24559;SDS011;12727;49.934;8.656;2023-04-24T03:08:30;1.75;;;1.00;;
24559;SDS011;12727;49.934;8.656;2023-04-24T03:10:56;4.00;;;1.27;;
24559;SDS011;12727;49.934;8.656;2023-04-24T03:13:22;2.28;;;1.30;;
24559;SDS011;12727;49.934;8.656;2023-04-24T03:15:47;1.30;;;0.93;;
24559;SDS011;12727;49.934;8.656;2023-04-24T03:18:13;3.17;;;1.30;;
24559;SDS011;12727;49.934;8.656;2023-04-24T03:20:38;3.55;;;1.30;;
24559;SDS011;12727;49.934;8.656;2023-04-24T03:23:04;4.65;;;1.17;;
24559;SDS011;12727;49.934;8.656;2023-04-24T03:25:30;2.92;;;1.30;;
24559;SDS011;12727;49.934;8.656;2023-04-24T03:27:55;3.05;;;1.15;;
24559;SDS011;12727;49.934;8.656;2023-04-24T03:30:21;2.90;;;1.15;;
24559;SDS011;12727;49.934;8.656;2023-04-24T03:32:46;4.57;;;1.17;;
24559;SDS011;12727;49.934;8.656;2023-04-24T03:35:12;3.05;;;1.40;;
24559;SDS011;12727;49.934;8.656;2023-04-24T03:37:37;2.88;;;1.10;;
24559;SDS011;12727;49.934;8.656;2023-04-24T03:40:03;3.03;;;1.33;;
24559;SDS011;12727;49.934;8.656;2023-04-24T03:42:30;2.90;;;1.30;;
24559;SDS011;12727;49.934;8.656;2023-04-24T03:44:56;3.45;;;1.40;;
24559;SDS011;12727;49.934;8.656;2023-04-24T03:47:22;5.93;;;1.73;;
24559;SDS011;12727;49.934;8.656;2023-04-24T03:49:47;4.57;;;2.40;;
24559;SDS011;12727;49.934;8.656;2023-04-24T03:52:13;2.33;;;1.58;;
24559;SDS011;12727;49.934;8.656;2023-04-24T03:54:38;3.88;;;1.60;;
24559;SDS011;12727;49.934;8.656;2023-04-24T03:57:04;2.75;;;1.65;;
24559;SDS011;12727;49.934;8.656;2023-04-24T03:59:30;2.90;;;1.73;;
24559;SDS011;12727;49.934;8.656;2023-04-24T04:01:55;2.85;;;1.50;;
24559;SDS011;12727;49.934;8.656;2023-04-24T04:04:21;3.88;;;1.48;;
24559;SDS011;12727;49.934;8.656;2023-04-24T04:06:46;5.57;;;1.60;;
24559;SDS011;12727;49.934;8.656;2023-04-24T04:09:12;7.05;;;1.92;;
24559;SDS011;12727;49.934;8.656;2023-04-24T04:11:38;1.92;;;1.42;;
24559;SDS011;12727;49.934;8.656;2023-04-24T04:14:04;5.13;;;2.05;;
24559;SDS011;12727;49.934;8.656;2023-04-24T04:16:30;4.63;;;1.98;;
24559;SDS011;12727;49.934;8.656;2023-04-24T04:18:56;3.67;;;2.20;;
24559;SDS011;12727;49.934;8.656;2023-04-24T04:21:21;3.40;;;1.90;;
24559;SDS011;12727;49.934;8.656;2023-04-24T04:23:47;3.55;;;1.70;;
24559;SDS011;12727;49.934;8.656;2023-04-24T04:26:13;4.25;;;1.75;;
24559;SDS011;12727;49.934;8.656;2023-04-24T04:28:38;2.80;;;1.70;;
24559;SDS011;12727;49.934;8.656;2023-04-24T04:31:04;2.75;;;1.83;;
24559;SDS011;12727;49.934;8.656;2023-04-24T04:33:30;3.25;;;2.08;;
24559;SDS011;12727;49.934;8.656;2023-04-24T04:35:56;3.78;;;2.15;;
24559;SDS011;12727;49.934;8.656;2023-04-24T04:38:22;4.13;;;2.00;;
24559;SDS011;12727;49.934;8.656;2023-04-24T04:40:48;3.83;;;2.22;;
24559;SDS011;12727;49.934;8.656;2023-04-24T04:43:13;3.78;;;2.20;;
24559;SDS011;12727;49.934;8.656;2023-04-24T04:45:40;3.75;;;2.30;;
24559;SDS011;12727;49.934;8.656;2023-04-24T04:48:07;4.40;;;2.13;;
24559;SDS011;12727;49.934;8.656;2023-04-24T04:50:34;4.55;;;2.10;;
24559;SDS011;12727;49.934;8.656;2023-04-24T04:53:00;3.75;;;2.17;;
24559;SDS011;12727;49.934;8.656;2023-04-24T04:55:26;2.35;;;2.08;;
24559;SDS011;12727;49.934;8.656;2023-04-24T04:57:51;3.42;;;2.10;;
24559;SDS011;12727;49.934;8.656;2023-04-24T05:00:17;3.50;;;2.20;;
24559;SDS011;12727;49.934;8.656;2023-04-24T05:02:43;3.28;;;2.20;;
24559;SDS011;12727;49.934;8.656;2023-04-24T05:05:09;2.90;;;2.25;;
24559;SDS011;12727;49.934;8.656;2023-04-24T05:07:35;6.50;;;2.40;;
24559;SDS011;12727;49.934;8.656;2023-04-24T05:10:00;3.00;;;2.03;;
24559;SDS011;12727;49.934;8.656;2023-04-24T05:12:26;4.18;;;2.30;;
24559;SDS011;12727;49.934;8.656;2023-04-24T05:14:52;2.60;;;1.85;;
24559;SDS011;12727;49.934;8.656;2023-04-24T05:17:17;2.15;;;1.80;;
24559;SDS011;12727;49.934;8.656;2023-04-24T05:19:43;3.10;;;2.30;;
24559;SDS011;12727;49.934;8.656;2023-04-24T05:22:09;3.58;;;2.60;;
24559;SDS011;12727;49.934;8.656;2023-04-24T05:24:34;2.75;;;2.33;;
24559;SDS011;12727;49.934;8.656;2023-04-24T05:27:00;4.05;;;2.40;;
24559;SDS011;12727;49.934;8.656;2023-04-24T05:29:27;3.22;;;2.50;;
24559;SDS011;12727;49.934;8.656;2023-04-24T05:31:55;2.85;;;2.30;;
24559;SDS011;12727;49.934;8.656;2023-04-24T05:34:21;3.03;;;2.40;;
24559;SDS011;12727;49.934;8.656;2023-04-24T05:36:47;4.47;;;2.65;;
24559;SDS011;12727;49.934;8.656;2023-04-24T05:39:13;3.17;;;2.80;;
24559;SDS011;12727;49.934;8.656;2023-04-24T05:41:39;6.50;;;3.00;;
24559;SDS011;12727;49.934;8.656;2023-04-24T05:44:04;5.55;;;2.80;;
24559;SDS011;12727;49.934;8.656;2023-04-24T05:46:30;4.20;;;2.95;;
24559;SDS011;12727;49.934;8.656;2023-04-24T05:48:56;3.20;;;2.80;;
24559;SDS011;12727;49.934;8.656;2023-04-24T05:51:21;3.13;;;2.63;;
24559;SDS011;12727;49.934;8.656;2023-04-24T05:53:48;5.15;;;2.28;;
24559;SDS011;12727;49.934;8.656;2023-04-24T05:56:14;4.07;;;2.40;;
24559;SDS011;12727;49.934;8.656;2023-04-24T05:58:40;4.30;;;2.20;;
24559;SDS011;12727;49.934;8.656;2023-04-24T06:01:06;4.22;;;2.08;;
24559;SDS011;12727;49.934;8.656;2023-04-24T06:03:32;4.88;;;2.45;;
24559;SDS011;12727;49.934;8.656;2023-04-24T06:05:57;3.55;;;2.38;;
24559;SDS011;12727;49.934;8.656;2023-04-24T06:08:23;4.00;;;2.55;;
24559;SDS011;12727;49.934;8.656;2023-04-24T06:10:49;4.85;;;2.58;;
24559;SDS011;12727;49.934;8.656;2023-04-24T06:13:14;4.90;;;2.70;;
24559;SDS011;12727;49.934;8.656;2023-04-24T06:15:40;4.28;;;2.90;;
24559;SDS011;12727;49.934;8.656;2023-04-24T06:18:06;5.10;;;2.65;;
24559;SDS011;12727;49.934;8.656;2023-04-24T06:20:32;5.15;;;3.10;;
24559;SDS011;12727;49.934;8.656;2023-04-24T06:22:58;3.85;;;3.05;;
24559;SDS011;12727;49.934;8.656;2023-04-24T06:25:28;4.20;;;3.00;;
24559;SDS011;12727;49.934;8.656;2023-04-24T06:27:54;4.57;;;3.00;;
24559;SDS011;12727;49.934;8.656;2023-04-24T06:30:20;5.30;;;3.47;;
24559;SDS011;12727;49.934;8.656;2023-04-24T06:32:45;5.28;;;3.08;;
24559;SDS011;12727;49.934;8.656;2023-04-24T06:35:11;4.75;;;3.42;;
24559;SDS011;12727;49.934;8.656;2023-04-24T06:37:38;4.00;;;3.00;;
24559;SDS011;12727;49.934;8.656;2023-04-24T06:40:05;5.10;;;2.80;;
24559;SDS011;12727;49.934;8.656;2023-04-24T06:42:31;5.25;;;3.05;;
24559;SDS011;12727;49.934;8.656;2023-04-24T06:44:57;5.55;;;2.42;;
24559;SDS011;12727;49.934;8.656;2023-04-24T06:47:22;5.35;;;2.90;;
24559;SDS011;12727;49.934;8.656;2023-04-24T06:49:48;5.30;;;3.38;;
24559;SDS011;12727;49.934;8.656;2023-04-24T06:52:15;5.78;;;3.42;;
24559;SDS011;12727;49.934;8.656;2023-04-24T06:54:41;4.65;;;3.30;;
24559;SDS011;12727;49.934;8.656;2023-04-24T06:57:07;4.00;;;3.20;;
24559;SDS011;12727;49.934;8.656;2023-04-24T06:59:33;5.25;;;3.58;;
24559;SDS011;12727;49.934;8.656;2023-04-24T07:01:58;5.75;;;3.45;;
24559;SDS011;12727;49.934;8.656;2023-04-24T07:04:24;5.78;;;3.95;;
24559;SDS011;12727;49.934;8.656;2023-04-24T07:06:50;6.70;;;3.83;;
24559;SDS011;12727;49.934;8.656;2023-04-24T07:09:16;5.95;;;4.13;;
24559;SDS011;12727;49.934;8.656;2023-04-24T07:11:43;6.13;;;4.00;;
24559;SDS011;12727;49.934;8.656;2023-04-24T07:14:09;7.20;;;4.15;;
24559;SDS011;12727;49.934;8.656;2023-04-24T07:16:35;9.80;;;4.60;;
24559;SDS011;12727;49.934;8.656;2023-04-24T07:19:01;7.38;;;4.40;;
24559;SDS011;12727;49.934;8.656;2023-04-24T07:21:26;6.15;;;4.18;;
24559;SDS011;12727;49.934;8.656;2023-04-24T07:23:52;7.13;;;4.90;;
24559;SDS011;12727;49.934;8.656;2023-04-24T07:26:19;7.47;;;4.50;;
24559;SDS011;12727;49.934;8.656;2023-04-24T07:28:45;6.57;;;4.78;;
24559;SDS011;12727;49.934;8.656;2023-04-24T07:31:11;6.38;;;4.50;;
24559;SDS011;12727;49.934;8.656;2023-04-24T07:33:37;5.60;;;4.32;;
24559;SDS011;12727;49.934;8.656;2023-04-24T07:36:03;6.57;;;4.45;;
24559;SDS011;12727;49.934;8.656;2023-04-24T07:38:29;5.65;;;4.63;;
24559;SDS011;12727;49.934;8.656;2023-04-24T07:40:55;4.30;;;3.40;;
24559;SDS011;12727;49.934;8.656;2023-04-24T07:43:20;7.22;;;3.45;;
24559;SDS011;12727;49.934;8.656;2023-04-24T07:45:47;5.32;;;3.22;;
24559;SDS011;12727;49.934;8.656;2023-04-24T07:48:12;2.97;;;2.30;;
24559;SDS011;12727;49.934;8.656;2023-04-24T07:50:41;3.47;;;2.28;;
24559;SDS011;12727;49.934;8.656;2023-04-24T07:53:07;3.67;;;2.13;;
24559;SDS011;12727;49.934;8.656;2023-04-24T07:55:32;3.85;;;1.50;;
24559;SDS011;12727;49.934;8.656;2023-04-24T07:57:58;2.80;;;1.83;;
24559;SDS011;12727;49.934;8.656;2023-04-24T08:00:24;2.55;;;1.75;;
24559;SDS011;12727;49.934;8.656;2023-04-24T08:02:49;5.07;;;1.95;;
24559;SDS011;12727;49.934;8.656;2023-04-24T08:05:15;3.72;;;1.80;;
24559;SDS011;12727;49.934;8.656;2023-04-24T08:07:40;3.83;;;1.90;;
24559;SDS011;12727;49.934;8.656;2023-04-24T08:10:09;3.70;;;1.83;;
24559;SDS011;12727;49.934;8.656;2023-04-24T08:12:35;1.70;;;1.30;;
24559;SDS011;12727;49.934;8.656;2023-04-24T08:15:01;3.20;;;1.45;;
24559;SDS011;12727;49.934;8.656;2023-04-24T08:17:27;2.50;;;1.60;;
24559;SDS011;12727;49.934;8.656;2023-04-24T08:19:53;2.85;;;1.48;;
24559;SDS011;12727;49.934;8.656;2023-04-24T08:22:26;2.85;;;1.65;;
24559;SDS011;12727;49.934;8.656;2023-04-24T08:24:52;2.08;;;1.40;;
24559;SDS011;12727;49.934;8.656;2023-04-24T08:27:18;3.90;;;2.40;;
24559;SDS011;12727;49.934;8.656;2023-04-24T08:29:43;2.15;;;1.60;;
24559;SDS011;12727;49.934;8.656;2023-04-24T08:32:09;1.92;;;1.40;;
24559;SDS011;12727;49.934;8.656;2023-04-24T08:34:34;2.25;;;1.52;;
24559;SDS011;12727;49.934;8.656;2023-04-24T08:37:00;2.15;;;1.48;;
24559;SDS011;12727;49.934;8.656;2023-04-24T08:39:26;5.50;;;2.05;;
24559;SDS011;12727;49.934;8.656;2023-04-24T08:41:52;1.75;;;1.17;;
24559;SDS011;12727;49.934;8.656;2023-04-24T08:44:18;2.13;;;1.80;;
24559;SDS011;12727;49.934;8.656;2023-04-24T08:46:45;2.65;;;2.05;;
24559;SDS011;12727;49.934;8.656;2023-04-24T08:49:13;1.58;;;1.05;;
24559;SDS011;12727;49.934;8.656;2023-04-24T08:51:43;2.85;;;1.60;;
24559;SDS011;12727;49.934;8.656;2023-04-24T08:54:10;2.00;;;1.65;;
24559;SDS011;12727;49.934;8.656;2023-04-24T08:56:37;5.20;;;1.80;;
24559;SDS011;12727;49.934;8.656;2023-04-24T08:59:05;2.05;;;1.45;;
24559;SDS011;12727;49.934;8.656;2023-04-24T09:01:32;2.15;;;1.90;;
24559;SDS011;12727;49.934;8.656;2023-04-24T09:04:01;4.15;;;2.10;;
24559;SDS011;12727;49.934;8.656;2023-04-24T09:06:28;4.72;;;2.15;;
24559;SDS011;12727;49.934;8.656;2023-04-24T09:08:55;3.72;;;2.22;;
24559;SDS011;12727;49.934;8.656;2023-04-24T09:11:22;5.43;;;1.23;;
24559;SDS011;12727;49.934;8.656;2023-04-24T09:13:49;3.17;;;2.05;;
24559;SDS011;12727;49.934;8.656;2023-04-24T09:16:18;2.05;;;1.50;;
24559;SDS011;12727;49.934;8.656;2023-04-24T09:18:44;2.72;;;1.90;;
24559;SDS011;12727;49.934;8.656;2023-04-24T09:21:10;2.60;;;1.40;;
24559;SDS011;12727;49.934;8.656;2023-04-24T09:23:36;2.22;;;1.67;;
24559;SDS011;12727;49.934;8.656;2023-04-24T09:26:02;2.85;;;1.80;;
24559;SDS011;12727;49.934;8.656;2023-04-24T09:28:30;2.58;;;1.60;;
24559;SDS011;12727;49.934;8.656;2023-04-24T09:33:30;2.20;;;1.83;;
24559;SDS011;12727;49.934;8.656;2023-04-24T09:35:56;2.15;;;1.58;;
24559;SDS011;12727;49.934;8.656;2023-04-24T09:38:31;3.58;;;1.65;;
24559;SDS011;12727;49.934;8.656;2023-04-24T09:41:01;2.88;;;1.52;;
24559;SDS011;12727;49.934;8.656;2023-04-24T09:43:28;2.25;;;1.63;;
24559;SDS011;12727;49.934;8.656;2023-04-24T09:45:55;3.03;;;1.52;;
24559;SDS011;12727;49.934;8.656;2023-04-24T09:48:35;3.50;;;1.05;;
24559;SDS011;12727;49.934;8.656;2023-04-24T09:51:02;1.70;;;1.00;;
24559;SDS011;12727;49.934;8.656;2023-04-24T09:53:31;3.30;;;1.10;;
24559;SDS011;12727;49.934;8.656;2023-04-24T09:56:07;2.28;;;1.00;;
24559;SDS011;12727;49.934;8.656;2023-04-24T09:58:34;1.33;;;1.10;;
24559;SDS011;12727;49.934;8.656;2023-04-24T10:01:01;3.17;;;1.30;;
24559;SDS011;12727;49.934;8.656;2023-04-24T10:03:29;2.28;;;1.30;;
24559;SDS011;12727;49.934;8.656;2023-04-24T10:05:59;9.80;;;1.20;;
24559;SDS011;12727;49.934;8.656;2023-04-24T10:08:26;3.10;;;1.85;;
24559;SDS011;12727;49.934;8.656;2023-04-24T10:10:57;1.50;;;0.90;;
24559;SDS011;12727;49.934;8.656;2023-04-24T10:13:24;2.08;;;1.30;;
24559;SDS011;12727;49.934;8.656;2023-04-24T10:15:50;3.17;;;1.40;;
24559;SDS011;12727;49.934;8.656;2023-04-24T10:18:16;2.00;;;1.30;;
24559;SDS011;12727;49.934;8.656;2023-04-24T10:20:42;3.22;;;1.65;;
24559;SDS011;12727;49.934;8.656;2023-04-24T10:23:08;3.33;;;1.63;;
24559;SDS011;12727;49.934;8.656;2023-04-24T10:25:34;2.63;;;2.10;;
24559;SDS011;12727;49.934;8.656;2023-04-24T10:28:01;2.35;;;1.75;;
24559;SDS011;12727;49.934;8.656;2023-04-24T10:30:31;3.22;;;2.03;;
24559;SDS011;12727;49.934;8.656;2023-04-24T10:33:02;2.70;;;2.40;;
24559;SDS011;12727;49.934;8.656;2023-04-24T10:35:40;2.60;;;1.80;;
24559;SDS011;12727;49.934;8.656;2023-04-24T10:38:12;2.95;;;2.28;;
24559;SDS011;12727;49.934;8.656;2023-04-24T10:40:39;4.50;;;2.10;;
24559;SDS011;12727;49.934;8.656;2023-04-24T10:43:06;5.15;;;2.17;;
24559;SDS011;12727;49.934;8.656;2023-04-24T10:45:35;3.97;;;1.90;;
24559;SDS011;12727;49.934;8.656;2023-04-24T10:48:02;2.50;;;1.70;;
24559;SDS011;12727;49.934;8.656;2023-04-24T10:50:28;1.95;;;1.60;;
24559;SDS011;12727;49.934;8.656;2023-04-24T10:53:04;3.28;;;2.00;;
24559;SDS011;12727;49.934;8.656;2023-04-24T10:55:50;3.55;;;1.80;;
24559;SDS011;12727;49.934;8.656;2023-04-24T10:58:24;5.63;;;1.95;;
24559;SDS011;12727;49.934;8.656;2023-04-24T11:01:00;3.63;;;1.70;;
24559;SDS011;12727;49.934;8.656;2023-04-24T11:03:29;3.30;;;1.70;;
24559;SDS011;12727;49.934;8.656;2023-04-24T11:09:05;2.10;;;1.60;;
24559;SDS011;12727;49.934;8.656;2023-04-24T11:11:28;3.50;;;1.63;;
24559;SDS011;12727;49.934;8.656;2023-04-24T11:18:52;4.10;;;2.55;;
24559;SDS011;12727;49.934;8.656;2023-04-24T11:23:56;3.67;;;2.75;;
24559;SDS011;12727;49.934;8.656;2023-04-24T11:26:22;5.55;;;2.72;;
24559;SDS011;12727;49.934;8.656;2023-04-24T11:28:55;2.22;;;1.80;;
24559;SDS011;12727;49.934;8.656;2023-04-24T11:31:38;4.72;;;2.78;;
24559;SDS011;12727;49.934;8.656;2023-04-24T11:34:14;2.80;;;2.10;;
24559;SDS011;12727;49.934;8.656;2023-04-24T11:36:48;2.53;;;2.03;;
24559;SDS011;12727;49.934;8.656;2023-04-24T11:39:14;3.30;;;2.15;;
24559;SDS011;12727;49.934;8.656;2023-04-24T11:41:40;3.33;;;2.17;;
24559;SDS011;12727;49.934;8.656;2023-04-24T11:44:06;5.00;;;2.50;;
24559;SDS011;12727;49.934;8.656;2023-04-24T11:46:33;4.32;;;2.17;;
24559;SDS011;12727;49.934;8.656;2023-04-24T11:48:59;3.70;;;2.30;;
24559;SDS011;12727;49.934;8.656;2023-04-24T11:51:25;5.07;;;2.35;;
24559;SDS011;12727;49.934;8.656;2023-04-24T11:53:55;3.38;;;2.20;;
24559;SDS011;12727;49.934;8.656;2023-04-24T11:56:24;3.00;;;1.77;;
24559;SDS011;12727;49.934;8.656;2023-04-24T11:58:53;2.10;;;1.50;;
24559;SDS011;12727;49.934;8.656;2023-04-24T12:01:19;1.40;;;0.98;;
24559;SDS011;12727;49.934;8.656;2023-04-24T12:03:49;2.53;;;0.80;;
24559;SDS011;12727;49.934;8.656;2023-04-24T12:06:18;2.05;;;1.40;;
24559;SDS011;12727;49.934;8.656;2023-04-24T12:08:47;3.08;;;1.90;;
24559;SDS011;12727;49.934;8.656;2023-04-24T12:11:14;2.50;;;2.10;;
24559;SDS011;12727;49.934;8.656;2023-04-24T12:13:41;2.20;;;2.00;;
24559;SDS011;12727;49.934;8.656;2023-04-24T12:16:07;2.60;;;1.98;;
24559;SDS011;12727;49.934;8.656;2023-04-24T12:18:32;3.00;;;2.10;;
24559;SDS011;12727;49.934;8.656;2023-04-24T12:23:43;2.63;;;1.77;;
24559;SDS011;12727;49.934;8.656;2023-04-24T12:26:10;3.53;;;2.38;;
24559;SDS011;12727;49.934;8.656;2023-04-24T12:28:37;3.50;;;2.28;;
24559;SDS011;12727;49.934;8.656;2023-04-24T12:31:03;2.97;;;2.28;;
24559;SDS011;12727;49.934;8.656;2023-04-24T12:33:34;4.28;;;2.50;;
24559;SDS011;12727;49.934;8.656;2023-04-24T12:36:00;4.82;;;2.83;;
24559;SDS011;12727;49.934;8.656;2023-04-24T12:38:26;3.63;;;1.80;;
24559;SDS011;12727;49.934;8.656;2023-04-24T12:41:04;5.55;;;2.70;;
24559;SDS011;12727;49.934;8.656;2023-04-24T12:43:34;4.25;;;2.25;;
24559;SDS011;12727;49.934;8.656;2023-04-24T12:46:00;4.65;;;3.33;;
24559;SDS011;12727;49.934;8.656;2023-04-24T12:48:26;4.10;;;3.20;;
24559;SDS011;12727;49.934;8.656;2023-04-24T12:50:52;5.65;;;3.20;;
24559;SDS011;12727;49.934;8.656;2023-04-24T12:53:18;3.40;;;2.22;;
24559;SDS011;12727;49.934;8.656;2023-04-24T12:55:43;3.20;;;1.95;;
24559;SDS011;12727;49.934;8.656;2023-04-24T12:58:10;4.22;;;2.38;;
24559;SDS011;12727;49.934;8.656;2023-04-24T13:00:36;4.03;;;2.38;;
24559;SDS011;12727;49.934;8.656;2023-04-24T13:03:04;4.10;;;2.38;;
24559;SDS011;12727;49.934;8.656;2023-04-24T13:05:29;3.58;;;2.30;;
24559;SDS011;12727;49.934;8.656;2023-04-24T13:07:56;3.65;;;2.20;;
24559;SDS011;12727;49.934;8.656;2023-04-24T13:10:22;3.88;;;2.58;;
24559;SDS011;12727;49.934;8.656;2023-04-24T13:12:48;3.25;;;2.47;;
24559;SDS011;12727;49.934;8.656;2023-04-24T13:15:13;4.18;;;2.97;;
24559;SDS011;12727;49.934;8.656;2023-04-24T13:17:39;5.07;;;3.17;;
24559;SDS011;12727;49.934;8.656;2023-04-24T13:20:05;5.28;;;3.10;;
24559;SDS011;12727;49.934;8.656;2023-04-24T13:22:31;5.20;;;3.15;;
24559;SDS011;12727;49.934;8.656;2023-04-24T13:24:56;3.13;;;2.63;;
24559;SDS011;12727;49.934;8.656;2023-04-24T13:27:22;4.47;;;2.25;;
24559;SDS011;12727;49.934;8.656;2023-04-24T13:29:47;5.10;;;2.83;;
24559;SDS011;12727;49.934;8.656;2023-04-24T13:32:13;4.05;;;2.50;;
24559;SDS011;12727;49.934;8.656;2023-04-24T13:34:38;4.18;;;2.58;;
24559;SDS011;12727;49.934;8.656;2023-04-24T13:37:04;4.55;;;2.20;;
24559;SDS011;12727;49.934;8.656;2023-04-24T13:39:30;4.10;;;2.30;;
24559;SDS011;12727;49.934;8.656;2023-04-24T13:41:56;3.90;;;2.47;;
24559;SDS011;12727;49.934;8.656;2023-04-24T13:44:22;4.72;;;2.25;;
24559;SDS011;12727;49.934;8.656;2023-04-24T13:46:49;4.30;;;2.30;;
24559;SDS011;12727;49.934;8.656;2023-04-24T13:49:17;5.43;;;2.30;;
24559;SDS011;12727;49.934;8.656;2023-04-24T13:51:43;5.38;;;2.15;;
24559;SDS011;12727;49.934;8.656;2023-04-24T13:54:10;6.60;;;3.00;;
24559;SDS011;12727;49.934;8.656;2023-04-24T13:56:36;4.00;;;2.60;;
24559;SDS011;12727;49.934;8.656;2023-04-24T13:59:02;5.43;;;2.88;;
24559;SDS011;12727;49.934;8.656;2023-04-24T14:01:27;5.28;;;2.70;;
24559;SDS011;12727;49.934;8.656;2023-04-24T14:03:53;6.28;;;2.90;;
24559;SDS011;12727;49.934;8.656;2023-04-24T14:06:20;5.57;;;3.03;;
24559;SDS011;12727;49.934;8.656;2023-04-24T14:08:47;4.35;;;2.72;;
24559;SDS011;12727;49.934;8.656;2023-04-24T14:11:13;5.03;;;3.03;;
24559;SDS011;12727;49.934;8.656;2023-04-24T14:13:39;4.32;;;3.00;;
24559;SDS011;12727;49.934;8.656;2023-04-24T14:16:06;4.35;;;2.95;;
24559;SDS011;12727;49.934;8.656;2023-04-24T14:18:32;4.68;;;3.15;;
24559;SDS011;12727;49.934;8.656;2023-04-24T14:20:58;3.90;;;3.10;;
24559;SDS011;12727;49.934;8.656;2023-04-24T14:23:24;3.78;;;2.22;;
24559;SDS011;12727;49.934;8.656;2023-04-24T14:25:49;4.32;;;2.40;;
24559;SDS011;12727;49.934;8.656;2023-04-24T14:28:17;3.63;;;2.22;;
24559;SDS011;12727;49.934;8.656;2023-04-24T14:30:44;5.43;;;2.40;;
24559;SDS011;12727;49.934;8.656;2023-04-24T14:33:09;2.72;;;1.83;;
24559;SDS011;12727;49.934;8.656;2023-04-24T14:35:35;4.75;;;2.53;;
24559;SDS011;12727;49.934;8.656;2023-04-24T14:38:01;3.92;;;2.05;;
24559;SDS011;12727;49.934;8.656;2023-04-24T14:40:27;4.10;;;2.40;;
24559;SDS011;12727;49.934;8.656;2023-04-24T14:42:53;3.95;;;2.55;;
24559;SDS011;12727;49.934;8.656;2023-04-24T14:45:18;4.10;;;2.78;;
24559;SDS011;12727;49.934;8.656;2023-04-24T14:47:44;5.18;;;3.05;;
24559;SDS011;12727;49.934;8.656;2023-04-24T14:50:10;3.75;;;2.95;;
24559;SDS011;12727;49.934;8.656;2023-04-24T14:52:37;4.60;;;2.75;;
24559;SDS011;12727;49.934;8.656;2023-04-24T14:55:03;6.30;;;3.08;;
24559;SDS011;12727;49.934;8.656;2023-04-24T14:57:29;4.65;;;2.90;;
24559;SDS011;12727;49.934;8.656;2023-04-24T14:59:55;4.22;;;2.70;;